Flight Track Log - Related Links

Times and Time Zones

All times are in EDT time to prevent confusion due to time zone crossing. See the LBQ792 flight status page for this flight to view local times or setup timezone preferences in your user account.


Time Position Orientation Groundspeed Altitude Reporting Facility
EDT Latitude Longitude Course Direction KTS MPH feet Rate Location/Type
Tue 01:24:27 AM 39.8764 -79.1983 172° South 263 303 15,100  Level Washington Center
Tue 01:25:27 AM 39.8331 -79.1150 124° Southeast 269 310 15,000 -50 Descending Washington Center
Tue 01:26:27 AM 39.7897 -79.0319 124° Southeast 275 316 15,000  Level Washington Center
Tue 01:27:27 AM 39.7503 -78.9489 122° Southeast 275 316 15,000 50 Level Washington Center
Tue 01:28:27 AM 39.6967 -78.8519 126° Southeast 293 337 15,100 50 Climbing Washington Center
Tue 01:29:00 AM 40.2949 -79.9189 172° South  Level FlightAware Approximate
Tue 01:29:27 AM 39.6572 -78.7694 122° Southeast 288 331 15,100  Level Washington Center
Tue 01:30:27 AM 39.6136 -78.6867 124° Southeast 282 325 15,100  Level Washington Center
Tue 01:31:27 AM 39.5719 -78.6042 123° Southeast 282 325 15,100 -248 Level Washington Center
Tue 01:32:28 AM 39.5281 -78.5217 125° Southeast 276 318 14,600 -850 Descending Washington Center
Tue 01:33:27 AM 39.4822 -78.4336 124° Southeast 276 318 13,400 -1,210 Descending Washington Center
Tue 01:34:27 AM 39.4364 -78.3458 124° Southeast 287 330 12,200 -1,150 Descending Washington Center
Tue 01:35:27 AM 39.3986 -78.2611 120° Southeast 287 330 11,100 -1,200 Descending Washington Center
Tue 01:36:27 AM 39.3778 -78.1664 106° East 268 308 9,800 -1,200 Descending Washington Center
Tue 01:37:27 AM 39.3589 -78.0744 105° East 268 308 8,700 -1,131 Descending Washington Center
Tue 01:38:29 AM 39.3356 -77.9850 109° East 263 303 7,500 -1,091 Descending Washington Center
Tue 01:39:28 AM 39.3206 -77.9069 104° East 263 303 6,500 -1,100 Descending Washington Center
Tue 01:40:29 AM 39.2992 -77.8203 108° East 258 297 5,300 -738 Descending Washington Center
Tue 01:41:30 AM 39.2800 -77.7392 107° East 246 283 5,000 -151 Descending Washington Center
Tue 01:42:28 AM 39.2644 -77.6664 105° East 229 264 5,000  Level Washington Center
Tue 01:43:12 AM 39.2500 -77.6000 106° East 211 243 5,000 -346 Level Potomac TRACON
Tue 01:44:12 AM 39.2333 -77.5333 108° East 216 249 4,400 -905 Descending Potomac TRACON
Tue 01:45:18 AM 39.1833 -77.4833 142° Southeast 232 267 3,100 -661 Descending Potomac TRACON
Tue 01:46:19 AM 39.1333 -77.4500 153° Southeast 221 254 3,000 -446 Descending Potomac TRACON
Tue 01:47:19 AM 39.0667 -77.4500 180° South 218 251 2,200 -900 Descending Potomac TRACON
Tue 01:48:19 AM 39.0167 -77.4667 195° South 147 169 1,200 -800 Descending Potomac TRACON
Tue 01:49:19 AM 38.9833 -77.4667 180° South 111 128 600 -600 Descending Potomac TRACON
Tue 01:51:00 AM 38.9474 -77.4599 169° South  Level Estimated

Login

Don't have an account? Register now (free) for customized features, flight alerts, and more!